createdAt,value
2018-09-29T00:01:14.496Z,3.50
2018-09-29T00:03:43.188Z,3.50
2018-09-29T00:06:11.874Z,3.50
2018-09-29T00:08:40.889Z,3.30
2018-09-29T00:11:09.865Z,3.20
2018-09-29T00:13:38.583Z,3.10
2018-09-29T00:16:07.686Z,3.10
2018-09-29T00:18:36.337Z,3.10
2018-09-29T00:21:05.196Z,3.20
2018-09-29T00:23:34.293Z,3.10
2018-09-29T00:26:03.290Z,3.10
2018-09-29T00:28:32.429Z,3.00
2018-09-29T00:31:01.430Z,3.00
2018-09-29T00:33:30.143Z,3.00
2018-09-29T00:35:58.916Z,3.00
2018-09-29T00:38:27.668Z,3.10
2018-09-29T00:40:56.498Z,3.10
2018-09-29T00:43:25.166Z,3.00
2018-09-29T00:45:53.870Z,2.90
2018-09-29T00:48:22.546Z,2.80
2018-09-29T00:50:51.645Z,2.70
2018-09-29T00:53:20.677Z,2.70
2018-09-29T00:55:49.705Z,2.70
2018-09-29T00:58:18.765Z,2.70
2018-09-29T01:00:47.791Z,2.60
2018-09-29T01:03:16.497Z,2.70
2018-09-29T01:05:45.215Z,2.70
2018-09-29T01:08:13.910Z,2.70
2018-09-29T01:10:42.668Z,2.70
2018-09-29T01:13:11.336Z,2.70
2018-09-29T01:15:40.043Z,2.70
2018-09-29T01:18:09.400Z,2.60
2018-09-29T01:20:38.142Z,2.50
2018-09-29T01:23:06.870Z,2.30
2018-09-29T01:25:35.527Z,2.20
2018-09-29T01:28:04.231Z,2.30
2018-09-29T01:30:32.907Z,2.30
2018-09-29T01:33:01.638Z,2.30
2018-09-29T01:35:30.305Z,2.40
2018-09-29T01:37:59.049Z,2.30
2018-09-29T01:40:27.760Z,2.30
2018-09-29T01:42:56.494Z,2.30
2018-09-29T01:45:25.180Z,2.20
2018-09-29T01:47:53.891Z,2.30
2018-09-29T01:50:22.672Z,2.20
2018-09-29T01:52:51.412Z,2.20
2018-09-29T01:55:20.101Z,2.10
2018-09-29T01:57:48.835Z,2.10
2018-09-29T02:00:17.560Z,2.00
2018-09-29T02:02:46.309Z,1.90
2018-09-29T02:05:15.022Z,1.80
2018-09-29T02:07:43.690Z,1.80
2018-09-29T02:10:12.451Z,1.80
2018-09-29T02:12:41.215Z,1.80
2018-09-29T02:15:09.969Z,1.80
2018-09-29T02:17:38.849Z,1.70
2018-09-29T02:20:07.601Z,1.70
2018-09-29T02:22:36.276Z,1.70
2018-09-29T02:25:04.973Z,1.70
2018-09-29T02:27:33.669Z,1.70
2018-09-29T02:30:02.379Z,1.70
2018-09-29T02:32:31.067Z,1.60
2018-09-29T02:34:59.801Z,1.60
2018-09-29T02:37:28.490Z,1.70
2018-09-29T02:39:57.196Z,1.70
2018-09-29T02:42:25.973Z,1.70
2018-09-29T02:44:54.692Z,1.70
2018-09-29T02:47:23.394Z,1.70
2018-09-29T02:49:52.097Z,1.70
2018-09-29T02:52:20.802Z,1.70
2018-09-29T02:54:49.546Z,1.60
2018-09-29T02:57:18.241Z,1.60
2018-09-29T02:59:47.264Z,1.60
2018-09-29T03:02:15.944Z,1.60
2018-09-29T03:04:44.642Z,1.60
2018-09-29T03:07:13.375Z,1.60
2018-09-29T03:09:42.044Z,1.60
2018-09-29T03:12:10.708Z,1.70
2018-09-29T03:14:39.417Z,1.60
2018-09-29T03:17:08.191Z,1.60
2018-09-29T03:19:36.993Z,1.70
2018-09-29T03:22:05.697Z,1.70
2018-09-29T03:24:34.441Z,1.70
2018-09-29T03:27:03.102Z,1.70
2018-09-29T03:29:31.846Z,1.60
2018-09-29T03:32:00.680Z,1.50
2018-09-29T03:34:29.286Z,1.50
2018-09-29T03:36:58.246Z,1.60
2018-09-29T03:39:26.965Z,1.60
2018-09-29T03:41:55.637Z,1.70
2018-09-29T03:44:24.363Z,1.70
2018-09-29T03:46:53.062Z,1.60
2018-09-29T03:49:21.793Z,1.60
2018-09-29T03:51:50.505Z,1.50
2018-09-29T03:54:19.196Z,1.50
2018-09-29T03:56:47.850Z,1.50
2018-09-29T03:59:16.545Z,1.50
2018-09-29T04:01:45.286Z,1.40
2018-09-29T04:04:13.940Z,1.40
2018-09-29T04:06:42.594Z,1.40
2018-09-29T04:09:11.316Z,1.40
2018-09-29T04:11:39.993Z,1.50
2018-09-29T04:14:08.715Z,1.40
2018-09-29T04:16:37.498Z,1.50
2018-09-29T04:19:06.331Z,1.40
2018-09-29T04:21:44.968Z,1.40
2018-09-29T04:24:13.753Z,1.40
2018-09-29T04:26:42.468Z,1.40
2018-09-29T04:29:11.601Z,1.40
2018-09-29T04:31:40.961Z,1.40
2018-09-29T04:34:10.137Z,1.50
2018-09-29T04:36:38.831Z,1.50
2018-09-29T04:39:10.545Z,1.50
2018-09-29T04:41:39.642Z,1.50
2018-09-29T04:44:09.157Z,1.50
2018-09-29T04:46:37.983Z,1.40
2018-09-29T04:49:06.899Z,1.30
2018-09-29T04:51:35.675Z,1.40
2018-09-29T04:54:04.402Z,1.30
2018-09-29T04:56:33.845Z,1.30
2018-09-29T04:59:02.571Z,1.30
2018-09-29T05:01:31.287Z,1.30
2018-09-29T05:04:00.015Z,1.30
2018-09-29T05:06:28.690Z,1.40
2018-09-29T05:08:57.390Z,1.40
2018-09-29T05:11:26.049Z,1.40
2018-09-29T05:13:54.772Z,1.40
2018-09-29T05:16:23.444Z,1.30
2018-09-29T05:18:52.111Z,1.30
2018-09-29T05:21:20.813Z,1.30
2018-09-29T05:23:49.476Z,1.30
2018-09-29T05:26:18.202Z,1.30
2018-09-29T05:28:46.902Z,1.20
2018-09-29T05:31:15.658Z,1.30
2018-09-29T05:33:44.331Z,1.20
2018-09-29T05:36:13.046Z,1.30
2018-09-29T05:38:41.758Z,1.30
2018-09-29T05:41:10.444Z,1.30
2018-09-29T05:43:39.134Z,1.30
2018-09-29T05:46:07.846Z,1.40
2018-09-29T05:48:36.639Z,1.30
2018-09-29T05:51:05.354Z,1.30
2018-09-29T05:53:34.038Z,1.30
2018-09-29T05:56:03.000Z,1.40
2018-09-29T05:58:31.790Z,1.50
2018-09-29T06:01:00.472Z,1.50
2018-09-29T06:03:29.199Z,1.50
2018-09-29T06:05:57.926Z,1.50
2018-09-29T06:08:26.613Z,1.50
2018-09-29T06:10:55.352Z,1.60
2018-09-29T06:13:24.207Z,1.70
2018-09-29T06:15:52.997Z,1.80
2018-09-29T06:18:21.713Z,1.80
2018-09-29T06:20:50.538Z,1.90
2018-09-29T06:23:19.230Z,2.00
2018-09-29T06:25:47.937Z,2.10
2018-09-29T06:28:16.643Z,2.20
2018-09-29T06:30:45.356Z,2.40
2018-09-29T06:33:14.097Z,2.50
2018-09-29T06:35:42.846Z,2.70
2018-09-29T06:38:11.561Z,2.90
2018-09-29T06:40:40.372Z,3.00
2018-09-29T06:43:09.006Z,3.20
2018-09-29T06:45:37.703Z,3.40
2018-09-29T06:48:06.380Z,3.70
2018-09-29T06:50:35.134Z,3.90
2018-09-29T06:53:03.856Z,4.10
2018-09-29T06:55:32.588Z,4.20
2018-09-29T06:58:01.269Z,4.40
2018-09-29T07:00:29.945Z,4.60
2018-09-29T07:02:58.739Z,4.80
2018-09-29T07:05:27.477Z,5.00
2018-09-29T07:07:56.194Z,5.20
2018-09-29T07:10:24.865Z,5.40
2018-09-29T07:12:53.636Z,5.70
2018-09-29T07:15:22.291Z,6.10
2018-09-29T07:17:51.052Z,6.60
2018-09-29T07:20:19.791Z,7.10
2018-09-29T07:22:48.506Z,7.90
2018-09-29T07:25:17.226Z,8.80
2018-09-29T07:27:45.943Z,9.40
2018-09-29T07:30:14.771Z,10.20
2018-09-29T07:32:43.512Z,10.70
2018-09-29T07:35:12.188Z,11.30
2018-09-29T07:37:40.920Z,11.90
2018-09-29T07:40:09.662Z,12.30
2018-09-29T07:42:38.328Z,13.30
2018-09-29T07:45:07.102Z,13.80
2018-09-29T07:47:35.790Z,14.00
2018-09-29T07:50:04.591Z,13.90
2018-09-29T07:52:33.373Z,14.80
2018-09-29T07:55:02.097Z,15.70
2018-09-29T07:57:30.772Z,15.90
2018-09-29T07:59:59.509Z,16.20
2018-09-29T08:02:28.305Z,16.40
2018-09-29T08:04:57.025Z,17.10
2018-09-29T08:07:25.733Z,17.20
2018-09-29T08:09:54.454Z,16.90
2018-09-29T08:12:23.193Z,17.00
2018-09-29T08:14:51.876Z,16.70
2018-09-29T08:20:07.430Z,17.20
2018-09-29T08:22:36.145Z,17.10
2018-09-29T08:25:05.019Z,17.40
2018-09-29T08:27:33.778Z,18.00
2018-09-29T08:30:02.534Z,19.20
2018-09-29T08:32:31.247Z,19.30
2018-09-29T08:35:00.026Z,19.40
2018-09-29T08:37:28.703Z,19.10
2018-09-29T08:39:57.432Z,19.40
2018-09-29T08:42:26.090Z,19.60
2018-09-29T08:44:54.816Z,19.80
2018-09-29T08:47:23.730Z,20.00
2018-09-29T08:49:52.534Z,20.00
2018-09-29T08:52:21.267Z,20.20
2018-09-29T08:54:49.928Z,21.40
2018-09-29T08:57:18.642Z,21.00
2018-09-29T08:59:47.340Z,21.40
2018-09-29T09:02:16.085Z,20.70
2018-09-29T09:04:44.758Z,20.50
2018-09-29T09:07:13.428Z,21.20
2018-09-29T09:09:42.150Z,22.10
2018-09-29T09:12:10.831Z,21.90
2018-09-29T09:14:39.558Z,22.40
2018-09-29T09:17:08.236Z,22.20
2018-09-29T09:19:36.979Z,22.90
2018-09-29T09:22:05.714Z,22.40
2018-09-29T09:24:34.429Z,22.00
2018-09-29T09:27:03.113Z,21.80
2018-09-29T09:29:31.819Z,22.00
2018-09-29T09:32:00.536Z,21.90
2018-09-29T09:34:29.255Z,21.50
2018-09-29T09:36:57.970Z,22.30
2018-09-29T09:39:26.687Z,22.10
2018-09-29T09:41:55.395Z,21.70
2018-09-29T09:44:24.104Z,21.60
2018-09-29T09:46:52.799Z,22.00
2018-09-29T09:49:21.567Z,21.80
2018-09-29T09:51:50.680Z,21.70
2018-09-29T09:54:19.353Z,22.00
2018-09-29T09:56:48.107Z,21.80
2018-09-29T09:59:16.795Z,21.30
2018-09-29T10:01:51.881Z,21.30
2018-09-29T10:04:20.598Z,21.00
2018-09-29T10:06:49.491Z,20.70
2018-09-29T10:09:18.185Z,21.10
2018-09-29T10:11:46.926Z,21.10
2018-09-29T10:14:15.654Z,20.80
2018-09-29T10:16:44.360Z,20.30
2018-09-29T10:19:13.072Z,19.70
2018-09-29T10:21:41.738Z,19.40
2018-09-29T10:24:10.478Z,19.00
2018-09-29T10:26:39.194Z,18.50
2018-09-29T10:29:07.913Z,18.20
2018-09-29T10:31:36.653Z,17.90
2018-09-29T10:34:05.401Z,17.30
2018-09-29T10:36:34.091Z,17.20
2018-09-29T10:39:02.826Z,17.10
2018-09-29T10:41:31.545Z,17.00
2018-09-29T10:44:00.303Z,16.80
2018-09-29T10:46:29.055Z,16.50
2018-09-29T10:48:57.786Z,16.60
2018-09-29T10:51:26.467Z,16.50
2018-09-29T10:53:55.185Z,16.30
2018-09-29T10:56:23.920Z,16.20
2018-09-29T10:58:52.638Z,16.30
2018-09-29T11:01:21.349Z,15.90
2018-09-29T11:03:50.083Z,15.80
2018-09-29T11:06:18.768Z,15.60
2018-09-29T11:08:47.502Z,15.50
2018-09-29T11:11:16.206Z,15.40
2018-09-29T11:13:45.035Z,15.70
2018-09-29T11:16:13.911Z,15.90
2018-09-29T11:18:42.611Z,15.60
2018-09-29T11:21:11.360Z,15.60
2018-09-29T11:23:40.038Z,15.40
2018-09-29T11:26:08.751Z,15.00
2018-09-29T11:28:37.422Z,15.10
2018-09-29T11:31:06.407Z,15.10
2018-09-29T11:33:35.143Z,15.20
2018-09-29T11:36:03.854Z,15.20
2018-09-29T11:38:32.581Z,15.00
2018-09-29T11:41:01.283Z,15.00
2018-09-29T11:43:29.999Z,15.00
2018-09-29T11:45:58.723Z,14.90
2018-09-29T11:48:27.428Z,14.90
2018-09-29T11:50:56.234Z,14.90
2018-09-29T11:53:24.922Z,14.90
2018-09-29T11:55:53.633Z,14.90
2018-09-29T11:58:22.337Z,14.80
2018-09-29T12:00:51.376Z,14.70
2018-09-29T12:03:20.075Z,14.70
2018-09-29T12:05:48.871Z,14.90
2018-09-29T12:08:17.593Z,14.90
2018-09-29T12:10:46.370Z,14.80
2018-09-29T12:13:15.087Z,15.00
2018-09-29T12:15:43.774Z,14.90
2018-09-29T12:18:12.480Z,14.80
2018-09-29T12:20:41.194Z,14.70
2018-09-29T12:23:09.962Z,14.80
2018-09-29T12:25:38.659Z,14.80
2018-09-29T12:28:07.340Z,14.90
2018-09-29T12:30:36.068Z,14.80
2018-09-29T12:33:04.888Z,14.80
2018-09-29T12:35:33.641Z,15.00
2018-09-29T12:38:02.364Z,14.90
2018-09-29T12:40:31.074Z,15.00
2018-09-29T12:42:59.881Z,15.00
2018-09-29T12:45:28.615Z,14.90
2018-09-29T12:47:57.391Z,14.80
2018-09-29T12:50:26.219Z,14.70
2018-09-29T12:53:00.801Z,14.50
2018-09-29T12:55:29.574Z,14.70
2018-09-29T12:57:58.256Z,14.70
2018-09-29T13:00:27.059Z,14.80
2018-09-29T13:02:55.732Z,14.80
2018-09-29T13:05:29.771Z,14.90
2018-09-29T13:07:58.544Z,15.00
2018-09-29T13:10:27.317Z,15.00
2018-09-29T13:12:56.008Z,14.90
2018-09-29T13:15:24.917Z,15.00
2018-09-29T13:17:53.634Z,15.00
2018-09-29T13:20:22.376Z,15.00
2018-09-29T13:22:51.179Z,15.00
2018-09-29T13:25:19.914Z,15.10
2018-09-29T13:27:48.688Z,15.20
2018-09-29T13:30:17.422Z,15.10
2018-09-29T13:32:46.214Z,15.10
2018-09-29T13:35:14.928Z,15.00
2018-09-29T13:37:43.685Z,14.90
2018-09-29T13:40:12.413Z,15.00
2018-09-29T13:42:41.141Z,15.00
2018-09-29T13:45:09.822Z,15.00
2018-09-29T13:47:38.546Z,15.00
2018-09-29T13:50:07.700Z,14.90
2018-09-29T13:52:36.442Z,14.80
2018-09-29T13:55:05.301Z,15.00
2018-09-29T13:57:34.030Z,15.00
2018-09-29T14:00:02.825Z,15.10
2018-09-29T14:02:31.545Z,15.00
2018-09-29T14:05:00.329Z,14.90
2018-09-29T14:07:29.090Z,14.90
2018-09-29T14:09:57.805Z,15.00
2018-09-29T14:12:26.615Z,15.00
2018-09-29T14:14:55.358Z,15.10
2018-09-29T14:17:24.060Z,15.10
2018-09-29T14:19:52.811Z,15.00
2018-09-29T14:22:21.523Z,15.20
2018-09-29T14:24:56.833Z,15.10
2018-09-29T14:27:26.428Z,15.10
2018-09-29T14:29:55.171Z,15.00
2018-09-29T14:32:23.926Z,14.80
2018-09-29T14:34:52.682Z,14.70
2018-09-29T14:37:21.624Z,14.90
2018-09-29T14:39:50.333Z,15.00
2018-09-29T14:42:19.137Z,15.00
2018-09-29T14:44:47.882Z,15.10
2018-09-29T14:47:16.599Z,15.10
2018-09-29T14:49:45.499Z,15.10
2018-09-29T14:52:14.272Z,15.20
2018-09-29T14:54:42.916Z,15.30
2018-09-29T14:57:11.635Z,15.30
2018-09-29T14:59:40.322Z,15.20
2018-09-29T15:02:09.014Z,15.20
2018-09-29T15:04:41.502Z,15.10
2018-09-29T15:07:10.179Z,15.20
